sensor_id;sensor_type;location;lat;lon;timestamp;noise_LAeq;noise_LA_min;noise_LA_max;noise_LA01;noise_LA95
60503;Laerm;51448;51.660;5.824;2023-12-04T00:01:23;32.96;30.55;44.81;;
60503;Laerm;51448;51.660;5.824;2023-12-04T00:03:50;44.08;30.32;59.23;;
60503;Laerm;51448;51.660;5.824;2023-12-04T00:06:18;44.02;30.27;59.28;;
60503;Laerm;51448;51.660;5.824;2023-12-04T00:08:45;33.34;30.59;48.00;;
60503;Laerm;51448;51.660;5.824;2023-12-04T00:11:13;44.39;30.61;59.37;;
60503;Laerm;51448;51.660;5.824;2023-12-04T00:13:40;34.57;30.24;55.52;;
60503;Laerm;51448;51.660;5.824;2023-12-04T00:16:08;44.18;30.19;59.47;;
60503;Laerm;51448;51.660;5.824;2023-12-04T00:18:36;44.75;29.90;59.11;;
60503;Laerm;51448;51.660;5.824;2023-12-04T00:21:04;32.82;30.24;54.09;;
60503;Laerm;51448;51.660;5.824;2023-12-04T00:23:32;44.46;30.63;59.75;;
60503;Laerm;51448;51.660;5.824;2023-12-04T00:26:00;41.64;30.59;60.77;;
60503;Laerm;51448;51.660;5.824;2023-12-04T00:28:28;41.85;30.28;58.92;;
60503;Laerm;51448;51.660;5.824;2023-12-04T00:30:56;44.04;29.31;59.45;;
60503;Laerm;51448;51.660;5.824;2023-12-04T00:33:23;31.49;29.42;50.06;;
60503;Laerm;51448;51.660;5.824;2023-12-04T00:35:51;44.68;29.38;59.29;;
60503;Laerm;51448;51.660;5.824;2023-12-04T00:38:19;44.28;29.92;59.43;;
60503;Laerm;51448;51.660;5.824;2023-12-04T00:40:46;32.91;30.40;51.38;;
60503;Laerm;51448;51.660;5.824;2023-12-04T00:43:14;43.58;30.21;59.31;;
60503;Laerm;51448;51.660;5.824;2023-12-04T00:45:41;36.03;30.25;62.41;;
60503;Laerm;51448;51.660;5.824;2023-12-04T00:48:09;44.24;30.12;59.68;;
60503;Laerm;51448;51.660;5.824;2023-12-04T00:50:36;44.30;30.19;59.71;;
60503;Laerm;51448;51.660;5.824;2023-12-04T00:53:04;32.12;30.02;46.95;;
60503;Laerm;51448;51.660;5.824;2023-12-04T00:55:31;43.73;30.04;59.06;;
60503;Laerm;51448;51.660;5.824;2023-12-04T00:57:59;41.64;30.37;62.17;;
60503;Laerm;51448;51.660;5.824;2023-12-04T01:00:26;42.20;30.64;59.03;;
60503;Laerm;51448;51.660;5.824;2023-12-04T01:02:54;45.49;30.75;63.83;;
60503;Laerm;51448;51.660;5.824;2023-12-04T01:05:21;32.46;30.42;37.65;;
60503;Laerm;51448;51.660;5.824;2023-12-04T01:07:49;43.79;30.40;59.01;;
60503;Laerm;51448;51.660;5.824;2023-12-04T01:10:16;43.94;30.85;59.39;;
60503;Laerm;51448;51.660;5.824;2023-12-04T01:12:44;32.99;29.63;48.88;;
60503;Laerm;51448;51.660;5.824;2023-12-04T01:15:11;44.17;29.65;59.94;;
60503;Laerm;51448;51.660;5.824;2023-12-04T01:17:39;31.74;29.32;38.30;;
60503;Laerm;51448;51.660;5.824;2023-12-04T01:20:07;43.67;30.48;59.46;;
60503;Laerm;51448;51.660;5.824;2023-12-04T01:22:35;43.90;30.75;59.88;;
60503;Laerm;51448;51.660;5.824;2023-12-04T01:25:03;34.67;30.16;57.94;;
60503;Laerm;51448;51.660;5.824;2023-12-04T01:27:30;44.16;30.08;59.54;;
60503;Laerm;51448;51.660;5.824;2023-12-04T01:29:58;39.82;30.15;58.75;;
60503;Laerm;51448;51.660;5.824;2023-12-04T01:32:26;42.67;30.34;60.07;;
60503;Laerm;51448;51.660;5.824;2023-12-04T01:34:53;44.20;30.65;59.55;;
60503;Laerm;51448;51.660;5.824;2023-12-04T01:37:21;35.87;30.50;47.53;;
60503;Laerm;51448;51.660;5.824;2023-12-04T01:39:48;43.76;30.71;59.32;;
60503;Laerm;51448;51.660;5.824;2023-12-04T01:42:16;44.54;30.23;59.59;;
60503;Laerm;51448;51.660;5.824;2023-12-04T01:44:44;32.99;30.64;50.89;;
60503;Laerm;51448;51.660;5.824;2023-12-04T01:47:11;44.78;30.94;59.23;;
60503;Laerm;51448;51.660;5.824;2023-12-04T01:49:39;34.58;31.13;53.43;;
60503;Laerm;51448;51.660;5.824;2023-12-04T01:52:08;44.14;30.83;60.04;;
60503;Laerm;51448;51.660;5.824;2023-12-04T01:54:36;44.32;29.68;59.44;;
60503;Laerm;51448;51.660;5.824;2023-12-04T01:57:05;33.17;29.25;53.22;;
60503;Laerm;51448;51.660;5.824;2023-12-04T01:59:33;44.06;29.10;59.38;;
60503;Laerm;51448;51.660;5.824;2023-12-04T02:02:01;40.73;29.43;58.61;;
60503;Laerm;51448;51.660;5.824;2023-12-04T02:04:31;41.27;30.56;58.95;;
60503;Laerm;51448;51.660;5.824;2023-12-04T02:06:59;43.49;30.52;59.51;;
60503;Laerm;51448;51.660;5.824;2023-12-04T02:09:27;32.35;30.26;47.74;;
60503;Laerm;51448;51.660;5.824;2023-12-04T02:11:55;43.88;30.26;59.06;;
60503;Laerm;51448;51.660;5.824;2023-12-04T02:14:25;43.97;30.59;59.09;;
60503;Laerm;51448;51.660;5.824;2023-12-04T02:16:55;32.28;29.96;37.39;;
60503;Laerm;51448;51.660;5.824;2023-12-04T02:19:23;44.04;30.84;59.16;;
60503;Laerm;51448;51.660;5.824;2023-12-04T02:21:51;34.13;30.71;49.74;;
60503;Laerm;51448;51.660;5.824;2023-12-04T02:24:19;44.26;30.69;59.44;;
60503;Laerm;51448;51.660;5.824;2023-12-04T02:27:22;43.41;30.79;59.09;;
60503;Laerm;51448;51.660;5.824;2023-12-04T02:29:56;37.22;30.95;59.00;;
60503;Laerm;51448;51.660;5.824;2023-12-04T02:32:29;42.65;31.27;59.23;;
60503;Laerm;51448;51.660;5.824;2023-12-04T02:35:03;44.84;31.13;58.99;;
60503;Laerm;51448;51.660;5.824;2023-12-04T02:37:32;33.71;30.97;49.36;;
60503;Laerm;51448;51.660;5.824;2023-12-04T02:40:02;43.10;29.95;59.19;;
60503;Laerm;51448;51.660;5.824;2023-12-04T02:42:30;43.80;29.11;58.83;;
60503;Laerm;51448;51.660;5.824;2023-12-04T02:44:58;32.08;29.25;50.20;;
60503;Laerm;51448;51.660;5.824;2023-12-04T02:47:25;43.85;29.48;59.29;;
60503;Laerm;51448;51.660;5.824;2023-12-04T02:49:53;35.78;29.84;50.67;;
60503;Laerm;51448;51.660;5.824;2023-12-04T02:52:20;44.54;30.59;59.02;;
60503;Laerm;51448;51.660;5.824;2023-12-04T02:54:48;43.16;30.43;59.00;;
60503;Laerm;51448;51.660;5.824;2023-12-04T02:57:16;34.13;30.38;53.60;;
60503;Laerm;51448;51.660;5.824;2023-12-04T02:59:43;43.48;30.34;59.06;;
60503;Laerm;51448;51.660;5.824;2023-12-04T03:02:11;43.98;30.70;63.11;;
60503;Laerm;51448;51.660;5.824;2023-12-04T03:04:38;36.30;30.34;58.83;;
60503;Laerm;51448;51.660;5.824;2023-12-04T03:07:06;43.92;30.40;59.40;;
60503;Laerm;51448;51.660;5.824;2023-12-04T03:09:33;32.70;30.25;46.87;;
60503;Laerm;51448;51.660;5.824;2023-12-04T03:12:18;43.59;30.41;59.07;;
60503;Laerm;51448;51.660;5.824;2023-12-04T03:14:46;43.88;30.31;59.23;;
60503;Laerm;51448;51.660;5.824;2023-12-04T03:17:14;33.87;30.43;52.17;;
60503;Laerm;51448;51.660;5.824;2023-12-04T03:19:41;43.79;30.53;59.63;;
60503;Laerm;51448;51.660;5.824;2023-12-04T03:22:09;42.72;30.41;59.19;;
60503;Laerm;51448;51.660;5.824;2023-12-04T03:24:36;38.26;30.76;59.26;;
60503;Laerm;51448;51.660;5.824;2023-12-04T03:27:04;43.77;30.97;58.97;;
60503;Laerm;51448;51.660;5.824;2023-12-04T03:29:31;38.29;29.56;57.77;;
60503;Laerm;51448;51.660;5.824;2023-12-04T03:31:59;43.28;29.61;59.06;;
60503;Laerm;51448;51.660;5.824;2023-12-04T03:34:26;44.10;29.79;58.72;;
60503;Laerm;51448;51.660;5.824;2023-12-04T03:36:54;33.48;30.02;49.98;;
60503;Laerm;51448;51.660;5.824;2023-12-04T03:39:21;44.05;31.13;59.60;;
60503;Laerm;51448;51.660;5.824;2023-12-04T03:41:49;33.48;31.14;45.32;;
60503;Laerm;51448;51.660;5.824;2023-12-04T03:44:16;43.89;31.13;59.14;;
60503;Laerm;51448;51.660;5.824;2023-12-04T03:46:44;43.65;30.52;59.49;;
60503;Laerm;51448;51.660;5.824;2023-12-04T03:49:11;33.69;30.66;51.59;;
60503;Laerm;51448;51.660;5.824;2023-12-04T03:51:39;45.16;30.98;59.60;;
60503;Laerm;51448;51.660;5.824;2023-12-04T03:54:07;42.55;30.63;59.04;;
60503;Laerm;51448;51.660;5.824;2023-12-04T03:56:34;39.48;30.74;58.72;;
60503;Laerm;51448;51.660;5.824;2023-12-04T03:59:02;44.83;31.15;59.27;;
60503;Laerm;51448;51.660;5.824;2023-12-04T04:01:30;35.04;30.44;52.16;;
60503;Laerm;51448;51.660;5.824;2023-12-04T04:03:57;43.78;30.33;58.73;;
60503;Laerm;51448;51.660;5.824;2023-12-04T04:06:25;44.46;30.63;59.83;;
60503;Laerm;51448;51.660;5.824;2023-12-04T04:08:52;35.34;30.70;48.26;;
60503;Laerm;51448;51.660;5.824;2023-12-04T04:11:20;44.17;30.62;59.22;;
60503;Laerm;51448;51.660;5.824;2023-12-04T04:13:48;35.95;30.46;48.48;;
60503;Laerm;51448;51.660;5.824;2023-12-04T04:16:15;44.39;30.69;59.42;;
60503;Laerm;51448;51.660;5.824;2023-12-04T04:18:43;43.70;30.29;59.01;;
60503;Laerm;51448;51.660;5.824;2023-12-04T04:21:11;36.95;29.68;51.39;;
60503;Laerm;51448;51.660;5.824;2023-12-04T04:23:38;43.92;29.70;59.35;;
60503;Laerm;51448;51.660;5.824;2023-12-04T04:26:06;42.49;29.77;59.25;;
60503;Laerm;51448;51.660;5.824;2023-12-04T04:28:34;39.95;30.53;58.88;;
60503;Laerm;51448;51.660;5.824;2023-12-04T04:31:02;43.53;31.28;59.00;;
60503;Laerm;51448;51.660;5.824;2023-12-04T04:33:29;35.97;31.12;49.50;;
60503;Laerm;51448;51.660;5.824;2023-12-04T04:35:57;44.03;31.18;60.03;;
60503;Laerm;51448;51.660;5.824;2023-12-04T04:38:24;43.96;31.33;59.38;;
60503;Laerm;51448;51.660;5.824;2023-12-04T04:40:52;33.00;31.07;47.43;;
60503;Laerm;51448;51.660;5.824;2023-12-04T04:43:20;44.85;30.59;59.04;;
60503;Laerm;51448;51.660;5.824;2023-12-04T04:45:48;32.97;31.03;45.92;;
60503;Laerm;51448;51.660;5.824;2023-12-04T04:48:15;44.07;30.65;59.19;;
60503;Laerm;51448;51.660;5.824;2023-12-04T04:50:43;43.84;31.18;59.38;;
60503;Laerm;51448;51.660;5.824;2023-12-04T04:53:10;33.45;30.87;51.03;;
60503;Laerm;51448;51.660;5.824;2023-12-04T04:55:38;43.91;31.13;58.75;;
60503;Laerm;51448;51.660;5.824;2023-12-04T04:58:16;43.72;31.20;60.88;;
60503;Laerm;51448;51.660;5.824;2023-12-04T05:00:45;35.77;31.14;57.54;;
60503;Laerm;51448;51.660;5.824;2023-12-04T05:03:13;44.96;31.60;59.92;;
60503;Laerm;51448;51.660;5.824;2023-12-04T05:05:41;32.97;31.08;40.26;;
60503;Laerm;51448;51.660;5.824;2023-12-04T05:08:09;44.62;31.57;59.12;;
60503;Laerm;51448;51.660;5.824;2023-12-04T05:10:38;44.65;31.24;59.29;;
60503;Laerm;51448;51.660;5.824;2023-12-04T05:13:07;38.41;30.32;53.49;;
60503;Laerm;51448;51.660;5.824;2023-12-04T05:15:35;44.80;30.41;59.95;;
60503;Laerm;51448;51.660;5.824;2023-12-04T05:18:02;41.65;30.75;59.28;;
60503;Laerm;51448;51.660;5.824;2023-12-04T05:20:30;43.39;30.92;58.77;;
60503;Laerm;51448;51.660;5.824;2023-12-04T05:22:57;44.94;31.66;59.44;;
60503;Laerm;51448;51.660;5.824;2023-12-04T05:25:25;43.94;32.92;56.55;;
60503;Laerm;51448;51.660;5.824;2023-12-04T05:28:00;44.32;31.91;59.17;;
60503;Laerm;51448;51.660;5.824;2023-12-04T05:30:28;44.22;31.46;59.17;;
60503;Laerm;51448;51.660;5.824;2023-12-04T05:32:55;40.47;31.18;52.31;;
60503;Laerm;51448;51.660;5.824;2023-12-04T05:35:23;45.03;31.07;59.76;;
60503;Laerm;51448;51.660;5.824;2023-12-04T05:37:50;41.69;31.39;66.98;;
60503;Laerm;51448;51.660;5.824;2023-12-04T05:40:18;44.47;31.93;58.92;;
60503;Laerm;51448;51.660;5.824;2023-12-04T05:42:46;43.91;31.99;59.27;;
60503;Laerm;51448;51.660;5.824;2023-12-04T05:45:13;39.23;32.07;53.22;;
60503;Laerm;51448;51.660;5.824;2023-12-04T05:47:41;45.51;32.58;58.97;;
60503;Laerm;51448;51.660;5.824;2023-12-04T05:50:09;45.84;32.42;59.10;;
60503;Laerm;51448;51.660;5.824;2023-12-04T05:52:36;42.94;32.07;58.89;;
60503;Laerm;51448;51.660;5.824;2023-12-04T05:55:04;44.57;32.32;61.43;;
60503;Laerm;51448;51.660;5.824;2023-12-04T05:57:32;39.70;32.32;52.37;;
60503;Laerm;51448;51.660;5.824;2023-12-04T05:59:59;46.77;32.50;60.10;;
60503;Laerm;51448;51.660;5.824;2023-12-04T06:02:27;44.42;32.23;59.06;;
60503;Laerm;51448;51.660;5.824;2023-12-04T06:04:57;36.53;32.00;49.46;;
60503;Laerm;51448;51.660;5.824;2023-12-04T06:07:25;44.13;31.72;59.00;;
60503;Laerm;51448;51.660;5.824;2023-12-04T06:09:52;40.82;32.32;50.74;;
60503;Laerm;51448;51.660;5.824;2023-12-04T06:12:20;44.34;32.14;59.61;;
60503;Laerm;51448;51.660;5.824;2023-12-04T06:14:47;47.41;31.77;67.35;;
60503;Laerm;51448;51.660;5.824;2023-12-04T06:17:15;36.99;31.15;51.17;;
60503;Laerm;51448;51.660;5.824;2023-12-04T06:19:42;45.96;32.27;59.06;;
60503;Laerm;51448;51.660;5.824;2023-12-04T06:22:10;44.34;32.48;59.41;;
60503;Laerm;51448;51.660;5.824;2023-12-04T06:24:38;44.81;33.11;60.55;;
60503;Laerm;51448;51.660;5.824;2023-12-04T06:27:07;45.51;33.23;59.11;;
60503;Laerm;51448;51.660;5.824;2023-12-04T06:29:36;43.13;32.50;55.76;;
60503;Laerm;51448;51.660;5.824;2023-12-04T06:32:05;45.16;31.98;59.04;;
60503;Laerm;51448;51.660;5.824;2023-12-04T06:34:33;45.95;32.82;58.97;;
60503;Laerm;51448;51.660;5.824;2023-12-04T06:37:02;41.66;33.55;52.34;;
60503;Laerm;51448;51.660;5.824;2023-12-04T06:39:32;45.68;33.04;58.90;;
60503;Laerm;51448;51.660;5.824;2023-12-04T06:42:01;44.20;33.45;59.44;;
60503;Laerm;51448;51.660;5.824;2023-12-04T06:44:29;43.47;32.96;59.07;;
60503;Laerm;51448;51.660;5.824;2023-12-04T06:47:03;45.76;33.37;60.27;;
60503;Laerm;51448;51.660;5.824;2023-12-04T06:49:32;42.85;32.94;57.42;;
60503;Laerm;51448;51.660;5.824;2023-12-04T06:52:01;47.00;34.83;59.68;;
60503;Laerm;51448;51.660;5.824;2023-12-04T06:54:28;46.27;33.85;59.24;;
60503;Laerm;51448;51.660;5.824;2023-12-04T06:56:56;44.08;33.61;63.68;;
60503;Laerm;51448;51.660;5.824;2023-12-04T06:59:23;45.79;34.18;59.14;;
60503;Laerm;51448;51.660;5.824;2023-12-04T07:01:51;44.95;33.38;63.95;;
60503;Laerm;51448;51.660;5.824;2023-12-04T07:04:19;45.31;32.44;59.57;;
60503;Laerm;51448;51.660;5.824;2023-12-04T07:06:48;47.10;33.11;59.95;;
60503;Laerm;51448;51.660;5.824;2023-12-04T07:09:16;41.86;32.89;62.23;;
60503;Laerm;51448;51.660;5.824;2023-12-04T07:11:44;46.23;32.49;59.47;;
60503;Laerm;51448;51.660;5.824;2023-12-04T07:14:12;44.93;32.79;58.92;;
60503;Laerm;51448;51.660;5.824;2023-12-04T07:16:43;43.37;33.20;59.77;;
60503;Laerm;51448;51.660;5.824;2023-12-04T07:19:10;44.56;32.43;59.07;;
60503;Laerm;51448;51.660;5.824;2023-12-04T07:21:38;44.26;33.03;60.81;;
60503;Laerm;51448;51.660;5.824;2023-12-04T07:24:07;44.88;32.76;59.09;;
60503;Laerm;51448;51.660;5.824;2023-12-04T07:26:35;47.75;34.10;65.43;;
60503;Laerm;51448;51.660;5.824;2023-12-04T07:29:06;46.19;32.27;59.46;;
60503;Laerm;51448;51.660;5.824;2023-12-04T07:31:34;45.22;31.69;60.21;;
60503;Laerm;51448;51.660;5.824;2023-12-04T07:34:02;44.58;32.55;59.49;;
60503;Laerm;51448;51.660;5.824;2023-12-04T07:36:30;46.80;32.72;62.21;;
60503;Laerm;51448;51.660;5.824;2023-12-04T07:38:58;46.34;33.41;60.25;;
60503;Laerm;51448;51.660;5.824;2023-12-04T07:41:25;41.62;32.25;60.18;;
60503;Laerm;51448;51.660;5.824;2023-12-04T07:43:54;46.38;32.84;64.83;;
60503;Laerm;51448;51.660;5.824;2023-12-04T07:46:22;57.63;32.58;83.46;;
60503;Laerm;51448;51.660;5.824;2023-12-04T07:48:49;43.53;33.00;56.61;;
60503;Laerm;51448;51.660;5.824;2023-12-04T07:51:19;47.90;32.65;63.54;;
60503;Laerm;51448;51.660;5.824;2023-12-04T07:53:47;40.31;32.14;51.36;;
60503;Laerm;51448;51.660;5.824;2023-12-04T07:56:14;43.94;32.22;59.07;;
60503;Laerm;51448;51.660;5.824;2023-12-04T07:58:42;45.46;32.72;58.91;;
60503;Laerm;51448;51.660;5.824;2023-12-04T08:01:10;41.99;32.68;54.52;;
60503;Laerm;51448;51.660;5.824;2023-12-04T08:03:37;46.58;33.56;67.19;;
60503;Laerm;51448;51.660;5.824;2023-12-04T08:06:05;44.11;32.80;58.77;;
60503;Laerm;51448;51.660;5.824;2023-12-04T08:08:33;45.74;34.21;63.60;;
60503;Laerm;51448;51.660;5.824;2023-12-04T08:11:00;45.07;32.83;67.93;;
60503;Laerm;51448;51.660;5.824;2023-12-04T08:13:28;43.88;33.61;55.58;;
60503;Laerm;51448;51.660;5.824;2023-12-04T08:15:56;46.86;34.30;61.88;;
60503;Laerm;51448;51.660;5.824;2023-12-04T08:18:24;45.11;33.43;59.70;;
60503;Laerm;51448;51.660;5.824;2023-12-04T08:20:52;47.45;33.63;68.33;;
60503;Laerm;51448;51.660;5.824;2023-12-04T08:23:19;45.71;33.11;60.52;;
60503;Laerm;51448;51.660;5.824;2023-12-04T08:25:47;46.44;32.55;61.21;;
60503;Laerm;51448;51.660;5.824;2023-12-04T08:28:15;44.69;33.27;59.92;;
60503;Laerm;51448;51.660;5.824;2023-12-04T08:30:43;46.25;33.38;60.01;;
60503;Laerm;51448;51.660;5.824;2023-12-04T08:33:10;39.04;33.26;53.19;;
60503;Laerm;51448;51.660;5.824;2023-12-04T08:35:38;44.74;33.18;58.92;;
60503;Laerm;51448;51.660;5.824;2023-12-04T08:38:06;42.17;33.04;58.92;;
60503;Laerm;51448;51.660;5.824;2023-12-04T08:40:33;45.19;33.50;64.35;;
60503;Laerm;51448;51.660;5.824;2023-12-04T08:43:01;46.30;33.67;60.02;;
60503;Laerm;51448;51.660;5.824;2023-12-04T08:45:29;42.18;33.87;52.97;;
60503;Laerm;51448;51.660;5.824;2023-12-04T08:47:57;46.03;33.66;59.68;;
60503;Laerm;51448;51.660;5.824;2023-12-04T08:50:24;45.94;32.65;58.98;;
60503;Laerm;51448;51.660;5.824;2023-12-04T08:52:52;40.84;33.43;54.83;;
60503;Laerm;51448;51.660;5.824;2023-12-04T08:55:20;46.04;34.30;68.06;;
60503;Laerm;51448;51.660;5.824;2023-12-04T08:57:48;43.75;33.44;64.94;;
60503;Laerm;51448;51.660;5.824;2023-12-04T09:00:16;44.40;34.48;63.49;;
60503;Laerm;51448;51.660;5.824;2023-12-04T09:02:44;46.68;35.46;65.77;;
60503;Laerm;51448;51.660;5.824;2023-12-04T09:05:20;43.99;35.35;54.62;;
60503;Laerm;51448;51.660;5.824;2023-12-04T09:07:48;47.67;34.37;63.52;;
60503;Laerm;51448;51.660;5.824;2023-12-04T09:10:35;42.45;33.13;59.34;;
60503;Laerm;51448;51.660;5.824;2023-12-04T09:13:23;41.40;33.10;60.56;;
60503;Laerm;51448;51.660;5.824;2023-12-04T09:15:50;46.10;33.95;60.83;;
60503;Laerm;51448;51.660;5.824;2023-12-04T09:18:18;47.44;34.20;64.46;;
60503;Laerm;51448;51.660;5.824;2023-12-04T09:20:47;46.53;34.06;67.82;;
60503;Laerm;51448;51.660;5.824;2023-12-04T09:23:14;47.62;33.55;64.80;;
60503;Laerm;51448;51.660;5.824;2023-12-04T09:25:42;42.60;32.56;63.19;;
60503;Laerm;51448;51.660;5.824;2023-12-04T09:28:09;50.77;34.47;64.26;;
60503;Laerm;51448;51.660;5.824;2023-12-04T09:30:37;46.35;33.57;64.72;;
60503;Laerm;51448;51.660;5.824;2023-12-04T09:33:05;47.94;34.23;72.39;;
60503;Laerm;51448;51.660;5.824;2023-12-04T09:35:33;44.48;33.74;66.73;;
60503;Laerm;51448;51.660;5.824;2023-12-04T09:38:01;45.45;33.92;59.22;;
60503;Laerm;51448;51.660;5.824;2023-12-04T09:40:29;49.04;34.17;68.60;;
60503;Laerm;51448;51.660;5.824;2023-12-04T09:42:58;46.09;33.89;68.19;;
60503;Laerm;51448;51.660;5.824;2023-12-04T09:45:28;44.19;34.00;59.64;;
60503;Laerm;51448;51.660;5.824;2023-12-04T09:47:56;45.26;33.98;62.82;;
60503;Laerm;51448;51.660;5.824;2023-12-04T09:50:25;44.88;33.63;60.79;;
60503;Laerm;51448;51.660;5.824;2023-12-04T09:52:52;41.98;33.62;63.27;;
60503;Laerm;51448;51.660;5.824;2023-12-04T09:55:20;44.13;33.73;59.74;;
60503;Laerm;51448;51.660;5.824;2023-12-04T09:57:48;60.06;33.85;90.25;;
60503;Laerm;51448;51.660;5.824;2023-12-04T10:00:19;45.34;33.93;64.41;;
60503;Laerm;51448;51.660;5.824;2023-12-04T10:02:48;44.80;33.60;63.27;;
60503;Laerm;51448;51.660;5.824;2023-12-04T10:05:16;40.12;32.28;56.87;;
60503;Laerm;51448;51.660;5.824;2023-12-04T10:07:43;42.70;33.14;58.77;;
60503;Laerm;51448;51.660;5.824;2023-12-04T10:10:11;44.11;32.96;62.16;;
60503;Laerm;51448;51.660;5.824;2023-12-04T10:12:39;43.31;32.88;58.81;;
60503;Laerm;51448;51.660;5.824;2023-12-04T10:15:10;45.26;34.00;59.43;;
60503;Laerm;51448;51.660;5.824;2023-12-04T10:17:40;41.57;32.85;63.99;;
60503;Laerm;51448;51.660;5.824;2023-12-04T10:20:15;47.09;33.17;60.11;;
60503;Laerm;51448;51.660;5.824;2023-12-04T10:22:58;50.47;32.99;76.20;;
60503;Laerm;51448;51.660;5.824;2023-12-04T10:25:29;46.39;33.24;75.59;;
60503;Laerm;51448;51.660;5.824;2023-12-04T10:28:11;45.02;32.88;59.37;;
60503;Laerm;51448;51.660;5.824;2023-12-04T10:30:39;43.29;32.17;66.92;;
60503;Laerm;51448;51.660;5.824;2023-12-04T10:33:08;42.79;32.12;64.18;;
60503;Laerm;51448;51.660;5.824;2023-12-04T10:35:37;44.03;32.71;59.33;;
60503;Laerm;51448;51.660;5.824;2023-12-04T10:38:06;44.20;32.35;58.94;;
60503;Laerm;51448;51.660;5.824;2023-12-04T10:40:36;40.80;32.45;58.87;;
60503;Laerm;51448;51.660;5.824;2023-12-04T10:43:22;44.43;32.64;59.95;;
60503;Laerm;51448;51.660;5.824;2023-12-04T10:45:50;42.53;32.96;54.57;;
60503;Laerm;51448;51.660;5.824;2023-12-04T10:48:19;46.18;32.68;64.88;;
60503;Laerm;51448;51.660;5.824;2023-12-04T10:50:49;45.09;32.28;62.13;;
60503;Laerm;51448;51.660;5.824;2023-12-04T10:53:17;40.71;32.73;53.94;;
60503;Laerm;51448;51.660;5.824;2023-12-04T10:55:45;46.21;33.40;59.13;;
60503;Laerm;51448;51.660;5.824;2023-12-04T10:58:15;45.69;34.31;59.19;;
60503;Laerm;51448;51.660;5.824;2023-12-04T11:00:48;56.03;34.29;68.70;;
60503;Laerm;51448;51.660;5.824;2023-12-04T11:03:24;52.29;33.86;68.84;;
60503;Laerm;51448;51.660;5.824;2023-12-04T11:06:00;38.86;33.41;55.91;;
60503;Laerm;51448;51.660;5.824;2023-12-04T11:08:29;41.59;33.29;58.81;;
60503;Laerm;51448;51.660;5.824;2023-12-04T11:11:03;42.99;32.83;58.91;;
60503;Laerm;51448;51.660;5.824;2023-12-04T11:13:34;39.97;32.29;55.60;;
60503;Laerm;51448;51.660;5.824;2023-12-04T11:16:16;43.29;32.56;59.29;;
60503;Laerm;51448;51.660;5.824;2023-12-04T11:19:23;42.68;32.58;58.66;;
60503;Laerm;51448;51.660;5.824;2023-12-04T11:21:59;39.17;32.72;61.54;;
60503;Laerm;51448;51.660;5.824;2023-12-04T11:24:28;44.11;33.45;59.10;;
60503;Laerm;51448;51.660;5.824;2023-12-04T11:26:56;43.55;32.70;58.53;;
60503;Laerm;51448;51.660;5.824;2023-12-04T11:29:24;41.94;32.63;58.92;;
60503;Laerm;51448;51.660;5.824;2023-12-04T11:31:52;43.65;33.15;59.36;;
60503;Laerm;51448;51.660;5.824;2023-12-04T11:34:20;41.47;31.89;60.43;;
60503;Laerm;51448;51.660;5.824;2023-12-04T11:36:48;38.13;32.28;60.47;;
60503;Laerm;51448;51.660;5.824;2023-12-04T11:39:15;51.32;33.16;64.45;;
60503;Laerm;51448;51.660;5.824;2023-12-04T11:41:45;41.99;32.82;58.76;;
60503;Laerm;51448;51.660;5.824;2023-12-04T11:44:13;44.82;32.92;65.87;;
60503;Laerm;51448;51.660;5.824;2023-12-04T11:46:56;43.60;32.63;62.97;;
60503;Laerm;51448;51.660;5.824;2023-12-04T11:49:28;46.09;33.45;68.73;;
60503;Laerm;51448;51.660;5.824;2023-12-04T11:51:59;44.02;32.47;66.82;;
60503;Laerm;51448;51.660;5.824;2023-12-04T11:54:28;49.49;32.56;70.72;;
60503;Laerm;51448;51.660;5.824;2023-12-04T11:59:39;46.61;33.05;68.54;;
60503;Laerm;51448;51.660;5.824;2023-12-04T12:02:10;45.02;32.57;61.27;;
60503;Laerm;51448;51.660;5.824;2023-12-04T12:04:38;44.30;32.36;63.22;;
60503;Laerm;51448;51.660;5.824;2023-12-04T12:07:06;44.77;32.02;65.40;;
60503;Laerm;51448;51.660;5.824;2023-12-04T12:09:34;47.79;33.04;70.11;;
60503;Laerm;51448;51.660;5.824;2023-12-04T12:12:04;47.70;33.10;69.86;;
60503;Laerm;51448;51.660;5.824;2023-12-04T12:14:31;43.82;33.24;58.80;;
60503;Laerm;51448;51.660;5.824;2023-12-04T12:17:00;66.64;32.57;83.05;;
60503;Laerm;51448;51.660;5.824;2023-12-04T12:19:29;55.23;34.16;74.70;;
60503;Laerm;51448;51.660;5.824;2023-12-04T12:21:57;43.51;32.60;58.41;;
60503;Laerm;51448;51.660;5.824;2023-12-04T12:24:24;43.58;32.89;58.90;;
60503;Laerm;51448;51.660;5.824;2023-12-04T12:26:54;52.80;33.18;66.25;;
60503;Laerm;51448;51.660;5.824;2023-12-04T12:29:24;70.45;38.79;82.13;;
60503;Laerm;51448;51.660;5.824;2023-12-04T12:31:52;44.71;33.06;61.01;;
60503;Laerm;51448;51.660;5.824;2023-12-04T12:34:19;54.89;33.88;72.02;;
60503;Laerm;51448;51.660;5.824;2023-12-04T12:36:47;43.18;32.84;56.37;;
60503;Laerm;51448;51.660;5.824;2023-12-04T12:39:14;45.66;33.61;66.16;;
60503;Laerm;51448;51.660;5.824;2023-12-04T12:41:49;41.66;32.98;63.87;;
60503;Laerm;51448;51.660;5.824;2023-12-04T12:44:18;44.75;33.37;62.77;;
60503;Laerm;51448;51.660;5.824;2023-12-04T12:46:49;43.44;33.05;59.25;;
60503;Laerm;51448;51.660;5.824;2023-12-04T12:49:18;41.37;32.50;54.45;;
60503;Laerm;51448;51.660;5.824;2023-12-04T12:52:05;45.35;33.14;57.69;;
60503;Laerm;51448;51.660;5.824;2023-12-04T12:54:41;43.56;33.00;60.20;;
60503;Laerm;51448;51.660;5.824;2023-12-04T12:57:10;44.80;32.69;56.30;;
60503;Laerm;51448;51.660;5.824;2023-12-04T12:59:39;44.49;32.98;61.84;;
60503;Laerm;51448;51.660;5.824;2023-12-04T13:02:07;42.47;32.74;62.42;;
60503;Laerm;51448;51.660;5.824;2023-12-04T13:04:41;46.52;34.11;66.92;;
60503;Laerm;51448;51.660;5.824;2023-12-04T13:07:10;44.54;34.17;59.39;;
60503;Laerm;51448;51.660;5.824;2023-12-04T13:09:39;42.52;33.00;55.93;;
60503;Laerm;51448;51.660;5.824;2023-12-04T13:12:07;41.97;32.57;60.98;;
60503;Laerm;51448;51.660;5.824;2023-12-04T13:14:35;44.40;34.27;58.94;;
60503;Laerm;51448;51.660;5.824;2023-12-04T13:17:04;46.75;34.64;60.65;;
60503;Laerm;51448;51.660;5.824;2023-12-04T13:19:31;59.08;32.50;75.18;;
60503;Laerm;51448;51.660;5.824;2023-12-04T13:22:00;57.70;33.12;76.80;;
60503;Laerm;51448;51.660;5.824;2023-12-04T13:24:28;43.52;33.09;59.17;;
60503;Laerm;51448;51.660;5.824;2023-12-04T13:26:56;44.56;33.71;61.05;;
60503;Laerm;51448;51.660;5.824;2023-12-04T13:29:24;49.91;34.07;66.50;;
60503;Laerm;51448;51.660;5.824;2023-12-04T13:31:51;45.61;33.91;66.39;;
60503;Laerm;51448;51.660;5.824;2023-12-04T13:34:19;43.86;34.02;59.57;;
60503;Laerm;51448;51.660;5.824;2023-12-04T13:36:46;43.01;33.65;67.08;;
60503;Laerm;51448;51.660;5.824;2023-12-04T13:39:14;46.25;33.58;59.62;;
60503;Laerm;51448;51.660;5.824;2023-12-04T13:41:49;56.70;33.95;76.04;;
60503;Laerm;51448;51.660;5.824;2023-12-04T13:44:36;45.98;33.27;59.90;;
60503;Laerm;51448;51.660;5.824;2023-12-04T13:47:04;47.99;33.89;61.46;;
60503;Laerm;51448;51.660;5.824;2023-12-04T13:49:32;43.64;32.70;56.25;;
60503;Laerm;51448;51.660;5.824;2023-12-04T13:52:00;46.68;33.10;66.05;;
60503;Laerm;51448;51.660;5.824;2023-12-04T13:54:30;44.46;34.33;61.61;;
60503;Laerm;51448;51.660;5.824;2023-12-04T13:57:11;44.52;34.20;62.75;;